createdAt,value
2024-05-09T00:00:53.268Z,100.00
2024-05-09T00:05:57.375Z,100.00
2024-05-09T00:10:59.392Z,100.00
2024-05-09T00:16:01.235Z,100.00
2024-05-09T00:26:25.622Z,100.00
2024-05-09T00:31:31.940Z,100.00
2024-05-09T00:36:33.714Z,100.00
2024-05-09T00:41:35.547Z,100.00
2024-05-09T00:46:37.437Z,100.00
2024-05-09T00:51:42.327Z,100.00
2024-05-09T00:56:44.551Z,100.00
2024-05-09T01:01:46.787Z,100.00
2024-05-09T01:06:48.559Z,100.00
2024-05-09T01:11:50.528Z,100.00
2024-05-09T01:16:52.473Z,100.00
2024-05-09T01:21:54.356Z,100.00
2024-05-09T01:26:56.146Z,100.00
2024-05-09T01:32:00.795Z,100.00
2024-05-09T01:37:02.654Z,100.00
2024-05-09T01:42:04.752Z,100.00
2024-05-09T01:47:06.681Z,100.00
2024-05-09T01:52:11.217Z,100.00
2024-05-09T01:57:16.263Z,100.00
2024-05-09T02:02:19.258Z,100.00
2024-05-09T02:07:27.479Z,100.00
2024-05-09T02:12:29.436Z,100.00
2024-05-09T02:17:31.657Z,100.00
2024-05-09T02:22:36.814Z,100.00
2024-05-09T02:32:54.510Z,100.00
2024-05-09T02:37:56.480Z,100.00
2024-05-09T02:43:04.305Z,100.00
2024-05-09T02:48:07.168Z,100.00
2024-05-09T02:53:10.067Z,100.00
2024-05-09T02:58:14.437Z,100.00
2024-05-09T03:03:17.667Z,100.00
2024-05-09T03:08:19.723Z,100.00
2024-05-09T03:13:21.625Z,100.00
2024-05-09T03:18:27.656Z,100.00
2024-05-09T03:29:00.798Z,100.00
2024-05-09T03:34:05.125Z,100.00
2024-05-09T03:39:12.327Z,100.00
2024-05-09T03:44:15.442Z,100.00
2024-05-09T03:49:20.248Z,100.00
2024-05-09T03:54:22.114Z,100.00
2024-05-09T03:59:25.221Z,100.00
2024-05-09T04:04:27.262Z,100.00
2024-05-09T04:09:29.064Z,100.00
2024-05-09T04:14:32.389Z,100.00
2024-05-09T04:19:34.694Z,100.00
2024-05-09T04:24:39.362Z,100.00
2024-05-09T04:29:41.779Z,100.00
2024-05-09T04:34:43.834Z,100.00
2024-05-09T04:39:56.035Z,100.00
2024-05-09T04:44:58.913Z,100.00
2024-05-09T04:50:01.696Z,100.00
2024-05-09T04:55:03.799Z,100.00
2024-05-09T05:00:14.600Z,100.00
2024-05-09T05:05:20.201Z,100.00
2024-05-09T05:10:29.521Z,100.00
2024-05-09T05:15:37.313Z,100.00
2024-05-09T05:20:49.869Z,100.00
2024-05-09T05:25:55.178Z,100.00
2024-05-09T05:31:05.530Z,100.00
2024-05-09T05:36:23.863Z,100.00
2024-05-09T05:41:42.357Z,100.00
2024-05-09T05:46:50.245Z,100.00
2024-05-09T05:52:08.183Z,100.00
2024-05-09T05:57:23.546Z,100.00
2024-05-09T06:02:25.290Z,100.00
2024-05-09T06:07:27.160Z,100.00
2024-05-09T06:12:28.919Z,100.00
2024-05-09T06:17:33.498Z,100.00
2024-05-09T06:22:37.557Z,100.00
2024-05-09T06:27:40.049Z,100.00
2024-05-09T06:32:45.032Z,100.00
2024-05-09T06:37:49.799Z,100.00
2024-05-09T06:42:51.455Z,100.00
2024-05-09T06:47:53.305Z,100.00
2024-05-09T06:52:55.071Z,98.77
2024-05-09T06:57:56.745Z,97.17
2024-05-09T07:03:00.123Z,95.10
2024-05-09T07:08:06.747Z,93.37
2024-05-09T07:13:12.641Z,92.40
2024-05-09T07:18:17.203Z,90.69
2024-05-09T07:23:20.571Z,88.50
2024-05-09T07:28:22.236Z,86.79
2024-05-09T07:33:24.690Z,84.28
2024-05-09T07:38:27.107Z,81.64
2024-05-09T07:43:28.704Z,80.42
2024-05-09T07:50:01.397Z,77.82
2024-05-09T07:53:54.765Z,76.26
2024-05-09T07:58:58.657Z,74.42
2024-05-09T08:04:00.438Z,71.84
2024-05-09T08:09:07.687Z,68.79
2024-05-09T08:14:12.244Z,66.83
2024-05-09T08:19:14.055Z,64.83
2024-05-09T08:24:15.828Z,63.66
2024-05-09T08:29:17.502Z,60.34
2024-05-09T08:34:19.123Z,57.39
2024-05-09T08:39:20.863Z,54.73
2024-05-09T08:44:23.381Z,53.27
2024-05-09T08:49:26.153Z,48.97
2024-05-09T08:54:31.995Z,47.54
2024-05-09T08:59:44.655Z,45.81
2024-05-09T09:05:08.014Z,44.94
2024-05-09T09:10:21.087Z,41.60
2024-05-09T09:15:33.737Z,39.42
2024-05-09T09:20:57.926Z,36.51
2024-05-09T09:26:03.381Z,35.00
2024-05-09T09:31:05.372Z,33.11
2024-05-09T09:36:11.604Z,30.36
2024-05-09T09:41:18.882Z,29.04
2024-05-09T09:46:21.336Z,29.10
2024-05-09T09:51:33.658Z,27.47
2024-05-09T09:56:42.633Z,25.78
2024-05-09T10:01:48.961Z,25.44
2024-05-09T10:12:15.135Z,21.86
2024-05-09T10:17:17.362Z,21.28
2024-05-09T10:22:28.054Z,17.88
2024-05-09T10:27:33.611Z,18.13
2024-05-09T10:32:45.518Z,18.49
2024-05-09T10:37:48.255Z,16.69
2024-05-09T10:42:50.108Z,16.91
2024-05-09T10:48:13.538Z,16.68
2024-05-09T10:53:18.044Z,16.74
2024-05-09T10:58:28.565Z,15.34
2024-05-09T11:03:30.727Z,15.72
2024-05-09T11:08:33.986Z,15.23
2024-05-09T11:13:38.183Z,16.61
2024-05-09T11:18:40.371Z,16.02
2024-05-09T11:23:44.553Z,16.22
2024-05-09T11:28:46.300Z,15.45
2024-05-09T11:33:48.269Z,14.58
2024-05-09T11:44:11.166Z,15.51
2024-05-09T11:49:20.260Z,15.77
2024-05-09T11:54:22.739Z,15.54
2024-05-09T11:59:29.282Z,15.19
2024-05-09T12:04:32.592Z,14.80
2024-05-09T12:09:43.401Z,15.35
2024-05-09T12:14:45.175Z,16.43
2024-05-09T12:19:51.314Z,16.21
2024-05-09T12:24:54.644Z,15.62
2024-05-09T12:29:58.343Z,17.29
2024-05-09T12:35:00.833Z,15.89
2024-05-09T12:40:03.730Z,16.60
2024-05-09T12:45:08.962Z,16.82
2024-05-09T12:50:21.915Z,23.66
2024-05-09T12:55:33.792Z,24.33
2024-05-09T13:00:43.329Z,20.01
2024-05-09T13:05:54.626Z,25.87
2024-05-09T13:10:59.215Z,28.68
2024-05-09T13:16:01.172Z,24.92
2024-05-09T13:21:03.260Z,20.50
2024-05-09T13:26:05.042Z,21.28
2024-05-09T13:31:07.030Z,21.64
2024-05-09T13:36:08.674Z,20.87
2024-05-09T13:41:10.267Z,21.53
2024-05-09T13:46:12.106Z,21.16
2024-05-09T13:51:13.884Z,24.79
2024-05-09T13:56:15.476Z,21.82
2024-05-09T14:01:17.239Z,23.48
2024-05-09T14:06:19.287Z,22.68
2024-05-09T14:11:22.662Z,23.44
2024-05-09T14:16:24.510Z,26.59
2024-05-09T14:21:26.235Z,27.98
2024-05-09T14:26:28.339Z,30.14
2024-05-09T14:31:30.214Z,30.93
2024-05-09T14:36:33.597Z,31.62
2024-05-09T14:41:38.159Z,29.59
2024-05-09T14:46:42.332Z,30.26
2024-05-09T14:51:47.807Z,32.33
2024-05-09T14:56:53.893Z,33.93
2024-05-09T15:01:55.614Z,33.96
2024-05-09T15:06:59.649Z,33.70
2024-05-09T15:12:01.586Z,33.46
2024-05-09T15:17:03.318Z,34.07
2024-05-09T15:22:04.916Z,34.42
2024-05-09T15:27:06.713Z,34.54
2024-05-09T15:32:08.620Z,35.20
2024-05-09T15:37:10.397Z,35.34
2024-05-09T15:42:12.010Z,35.16
2024-05-09T15:47:13.694Z,35.48
2024-05-09T15:52:17.421Z,36.55
2024-05-09T15:57:19.342Z,36.95
2024-05-09T16:02:21.362Z,35.78
2024-05-09T16:07:25.438Z,35.75
2024-05-09T16:12:27.111Z,37.03
2024-05-09T16:17:28.941Z,35.81
2024-05-09T16:22:30.737Z,37.26
2024-05-09T16:27:32.565Z,37.65
2024-05-09T16:32:36.226Z,36.95
2024-05-09T16:37:37.827Z,38.01
2024-05-09T16:42:39.597Z,38.82
2024-05-09T16:47:41.440Z,40.27
2024-05-09T16:52:43.250Z,39.87
2024-05-09T16:57:45.069Z,40.94
2024-05-09T17:02:46.709Z,41.61
2024-05-09T17:13:42.777Z,43.25
2024-05-09T17:18:45.352Z,42.58
2024-05-09T17:23:47.399Z,43.13
2024-05-09T17:28:49.408Z,43.20
2024-05-09T17:33:51.393Z,43.94
2024-05-09T17:38:53.477Z,45.26
2024-05-09T17:43:55.244Z,45.31
2024-05-09T17:48:59.583Z,45.30
2024-05-09T17:54:02.647Z,46.01
2024-05-09T17:59:11.546Z,46.18
2024-05-09T18:04:13.524Z,47.16
2024-05-09T18:09:15.187Z,46.60
2024-05-09T18:14:19.647Z,47.96
2024-05-09T18:19:21.782Z,49.44
2024-05-09T18:24:23.581Z,48.96
2024-05-09T18:29:26.249Z,49.08
2024-05-09T18:34:31.114Z,50.33
2024-05-09T18:39:33.171Z,50.27
2024-05-09T18:44:35.004Z,51.53
2024-05-09T18:49:36.911Z,52.87
2024-05-09T18:54:39.508Z,53.59
2024-05-09T18:59:43.519Z,54.62
2024-05-09T19:04:45.330Z,55.25
2024-05-09T19:09:47.482Z,56.74
2024-05-09T19:14:49.124Z,56.98
2024-05-09T19:19:50.887Z,58.47
2024-05-09T19:24:52.724Z,58.37
2024-05-09T19:29:57.213Z,59.06
2024-05-09T19:34:59.326Z,60.47
2024-05-09T19:40:08.539Z,60.27
2024-05-09T19:45:17.473Z,61.32
2024-05-09T19:50:26.789Z,61.68
2024-05-09T19:55:40.266Z,62.54
2024-05-09T20:00:43.834Z,63.14
2024-05-09T20:05:47.433Z,64.40
2024-05-09T20:10:49.475Z,64.69
2024-05-09T20:15:51.477Z,64.57
2024-05-09T20:20:54.114Z,66.12
2024-05-09T20:25:56.043Z,65.86
2024-05-09T20:30:58.092Z,66.14
2024-05-09T20:36:04.154Z,65.80
2024-05-09T20:41:05.741Z,67.31
2024-05-09T20:46:07.360Z,66.85
2024-05-09T20:51:10.265Z,68.67
2024-05-09T20:56:21.434Z,69.69
2024-05-09T21:01:23.310Z,69.84
2024-05-09T21:06:24.944Z,70.33
2024-05-09T21:11:26.502Z,71.75
2024-05-09T21:16:28.341Z,71.44
2024-05-09T21:21:30.146Z,72.51
2024-05-09T21:26:32.163Z,72.84
2024-05-09T21:31:34.206Z,73.87
2024-05-09T21:36:35.929Z,74.59
2024-05-09T21:41:37.557Z,75.26
2024-05-09T21:46:39.232Z,76.38
2024-05-09T21:51:40.871Z,76.51
2024-05-09T21:56:42.556Z,76.53
2024-05-09T22:01:46.566Z,77.96
2024-05-09T22:06:51.680Z,79.06
2024-05-09T22:11:54.494Z,80.06
2024-05-09T22:16:59.358Z,81.32
2024-05-09T22:22:01.243Z,82.66
2024-05-09T22:27:03.414Z,83.66
2024-05-09T22:32:05.786Z,84.23
2024-05-09T22:37:08.234Z,85.36
2024-05-09T22:42:10.008Z,86.28
2024-05-09T22:47:14.234Z,87.39
2024-05-09T22:52:16.480Z,87.99
2024-05-09T22:57:21.428Z,89.60
2024-05-09T23:02:23.297Z,89.68
2024-05-09T23:07:26.083Z,90.10
2024-05-09T23:12:32.149Z,90.66
2024-05-09T23:17:34.090Z,92.00
2024-05-09T23:22:37.287Z,92.65
2024-05-09T23:27:40.360Z,93.09
2024-05-09T23:32:42.322Z,94.29
2024-05-09T23:37:46.489Z,95.36
2024-05-09T23:42:51.263Z,95.86
2024-05-09T23:47:53.505Z,96.04
2024-05-09T23:52:55.267Z,96.35
2024-05-09T23:57:57.393Z,97.06
